Flight Track Log - Related Links

Times and Time Zones

All times are in EDT time to prevent confusion due to time zone crossing. See the DAL3784 flight status page for this flight to view local times or setup timezone preferences in your user account.

Time Position Orientation Groundspeed Altitude Reporting Facility
EDT Latitude Longitude Course Direction KTS MPH feet Rate Location/Type
Mon 03:45:32 PM 42.2058 -83.3556 352° North 145 167 1,100  Level Cleveland Center
Mon 03:46:03 PM 42.1931 -83.3711 222° Southwest 165 190 2,100 2,160 Climbing FAA TRACON SMA TRACON (SMA)
Mon 03:46:22 PM 42.1814 -83.3892 229° Southwest 181 208 2,900 2,550 Climbing FAA TRACON SMA TRACON (SMA)
Mon 03:46:43 PM 42.1694 -83.4072 228° Southwest 189 217 3,800 1,950 Climbing FAA TRACON SMA TRACON (SMA)
Mon 03:47:02 PM 42.1592 -83.4236 230° Southwest 210 242 4,200 1,800 Climbing FAA TRACON SMA TRACON (SMA)
Mon 03:47:23 PM 42.1444 -83.4467 229° Southwest 227 261 5,000 2,400 Climbing FAA TRACON SMA TRACON (SMA)
Mon 03:47:42 PM 42.1369 -83.4767 251° West 254 292 5,800 2,400 Climbing FAA TRACON SMA TRACON (SMA)
Mon 03:48:03 PM 42.1456 -83.5056 292° West 277 319 6,600 2,780 Climbing FAA TRACON SMA TRACON (SMA)
Mon 03:48:23 PM 42.1589 -83.5317 305° West 278 320 7,700 3,000 Climbing FAA TRACON SMA TRACON (SMA)
Mon 03:48:43 PM 42.1758 -83.5636 306° West 271 312 8,600 2,400 Climbing FAA TRACON SMA TRACON (SMA)
Mon 03:49:03 PM 42.1889 -83.5897 304° West 273 314 9,300 2,100 Climbing FAA TRACON SMA TRACON (SMA)
Mon 03:49:23 PM 42.2075 -83.6117 319° Northwest 289 333 10,000 1,650 Climbing FAA TRACON SMA TRACON (SMA)
Mon 03:49:43 PM 42.2328 -83.6219 343° North 323 372 10,400 1,350 Climbing FAA TRACON SMA TRACON (SMA)
Mon 03:50:03 PM 42.2672 -83.6267 354° North 331 381 10,900 1,317 Climbing FAA TRACON SMA TRACON (SMA)
Mon 03:50:24 PM 42.2967 -83.6303 355° North 342 394 11,300 1,463 Climbing FAA TRACON SMA TRACON (SMA)
Mon 03:50:44 PM 42.3336 -83.6169 15° North 356 410 11,900 1,650 Climbing FAA TRACON SMA TRACON (SMA)
Mon 03:51:00 PM 42.9510 -83.5201 352° North  Level FlightAware Approximate
Mon 03:51:04 PM 42.3636 -83.6042 17° North 365 420 12,400  Level FAA TRACON SMA TRACON (SMA)
Mon 03:51:24 PM 42.3936 -83.5911 18° North 367 422 12,900 1,650 Climbing FAA TRACON SMA TRACON (SMA)
Mon 03:51:44 PM 42.4236 -83.5781 18° North 367 422 13,500 1,692 Climbing FAA TRACON SMA TRACON (SMA)
Mon 03:52:03 PM 42.4594 -83.5628 17° North 370 426 14,000 1,846 Climbing FAA TRACON SMA TRACON (SMA)
Mon 03:52:23 PM 42.4903 -83.5492 18° North 375 432 14,700 2,100 Climbing FAA TRACON SMA TRACON (SMA)
Mon 03:52:43 PM 42.5292 -83.5333 17° North 376 433 15,400 1,800 Climbing FAA TRACON SMA TRACON (SMA)
Mon 03:53:03 PM 42.5600 -83.5200 18° North 376 433 15,900 1,500 Climbing FAA TRACON SMA TRACON (SMA)
Mon 03:53:23 PM 42.5908 -83.5067 18° North 376 433 16,400 1,800 Climbing FAA TRACON SMA TRACON (SMA)
Mon 03:53:43 PM 42.6294 -83.4900 18° North 377 434 17,100 1,800 Climbing FAA TRACON SMA TRACON (SMA)
Mon 03:54:03 PM 42.6603 -83.4769 17° North 377 434 17,600 1,317 Climbing FAA TRACON SMA TRACON (SMA)
Mon 03:54:24 PM 42.6914 -83.4636 17° North 377 434 18,000 1,500 Climbing FAA TRACON SMA TRACON (SMA)
Mon 03:54:43 PM 42.7300 -83.4464 18° North 378 435 18,600 1,650 Climbing FAA TRACON SMA TRACON (SMA)
Mon 03:55:04 PM 42.7611 -83.4328 18° North 380 437 19,100 1,317 Climbing FAA TRACON SMA TRACON (SMA)
Mon 03:55:24 PM 42.7922 -83.4192 18° North 380 437 19,500 1,500 Climbing FAA TRACON SMA TRACON (SMA)
Mon 03:55:44 PM 42.8311 -83.4017 18° North 380 437 20,100 1,650 Climbing FAA TRACON SMA TRACON (SMA)
Mon 03:56:04 PM 42.8619 -83.3881 18° North 380 437 20,600 1,200 Climbing FAA TRACON SMA TRACON (SMA)
Mon 03:56:24 PM 42.8931 -83.3750 17° North 379 436 20,900 1,200 Climbing FAA TRACON SMA TRACON (SMA)
Mon 03:56:44 PM 42.9325 -83.3678 North 366 421 21,400 1,200 Climbing FAA TRACON SMA TRACON (SMA)
Mon 03:57:04 PM 42.9639 -83.3672 North 367 422 21,700 900 Climbing FAA TRACON SMA TRACON (SMA)
Mon 03:57:24 PM 42.9956 -83.3667 North 368 423 22,000 700 Climbing FAA TRACON SMA TRACON (SMA)
Mon 03:58:04 PM 43.0689 -83.3694 358° North 381 438 22,400 700 Climbing FAA TRACON SMA TRACON (SMA)
Mon 03:58:24 PM 43.0983 -83.3825 342° North 365 420 22,700 450 Climbing FAA TRACON SMA TRACON (SMA)
Mon 03:58:44 PM 43.0983 -83.3825 360° North 365 420 22,700  Level FAA TRACON SMA TRACON (SMA)
Mon 03:59:04 PM 43.0983 -83.3825 360° North 365 420 22,700 1,164 Level FAA TRACON SMA TRACON (SMA)
Mon 03:59:51 PM 43.2308 -83.4669 335° Northwest 359 413 24,000 729 Climbing Cleveland Center
Mon 04:00:51 PM 43.3269 -83.5342 333° Northwest 359 413 24,000  Level Cleveland Center
Mon 04:01:51 PM 43.4211 -83.5986 334° Northwest 370 426 24,000  Level Cleveland Center
Mon 04:03:40 PM 43.5342 -83.7769 311° West 366 421 24,000  Level Minneapolis Center
Mon 04:04:42 PM 43.5633 -83.9053 287° West 354 407 24,000  Level Minneapolis Center
Mon 04:05:44 PM 43.5967 -84.0344 290° West 357 411 24,000  Level Minneapolis Center
Mon 04:06:45 PM 43.6294 -84.1636 289° West 358 412 24,000  Level Minneapolis Center
Mon 04:07:47 PM 43.6622 -84.2903 290° West 355 409 24,000  Level Minneapolis Center
Mon 04:08:48 PM 43.6939 -84.4169 289° West 352 405 24,000  Level Minneapolis Center
Mon 04:09:50 PM 43.7247 -84.5714 285° West 350 403 24,000  Level Minneapolis Center
Mon 04:10:51 PM 43.7439 -84.6997 282° West 347 399 24,000  Level Minneapolis Center
Mon 04:11:53 PM 43.7628 -84.8281 282° West 343 395 24,000  Level Minneapolis Center
Mon 04:13:06 PM 43.7828 -84.9581 282° West 346 398 24,000  Level Minneapolis Center
Mon 04:14:08 PM 43.8061 -85.1139 282° West 347 399 24,000  Level Minneapolis Center
Mon 04:15:10 PM 43.8258 -85.2431 282° West 345 397 24,000  Level Minneapolis Center
Mon 04:16:12 PM 43.8492 -85.3994 282° West 346 398 24,000  Level Minneapolis Center
Mon 04:17:13 PM 43.8686 -85.5308 282° West 349 402 24,000  Level Minneapolis Center
Mon 04:18:15 PM 43.8867 -85.6625 281° West 349 402 24,000  Level Minneapolis Center
Mon 04:19:17 PM 43.9056 -85.7944 281° West 351 404 24,000  Level Minneapolis Center
Mon 04:20:18 PM 43.9250 -85.9253 282° West 349 402 24,000  Level Minneapolis Center
Mon 04:21:20 PM 43.9436 -86.0606 281° West 351 404 24,000 -242 Level Minneapolis Center
Mon 04:22:22 PM 43.9617 -86.1900 281° West 351 404 23,500 -976 Descending Minneapolis Center
Mon 04:23:23 PM 43.9844 -86.3475 281° West 349 402 22,000 -1,220 Descending Minneapolis Center
Mon 04:24:25 PM 44.0011 -86.4714 281° West 333 383 21,000 -968 Descending Minneapolis Center
Mon 04:25:27 PM 44.0172 -86.5972 280° West 332 382 20,000 -968 Descending Minneapolis Center
Mon 04:26:29 PM 44.0347 -86.7267 281° West 340 391 19,000 -1,024 Descending Minneapolis Center
Mon 04:27:30 PM 44.0522 -86.8569 281° West 343 395 17,900 -1,073 Descending Minneapolis Center
Mon 04:28:32 PM 44.0694 -86.9858 281° West 337 388 16,800 -1,113 Descending Minneapolis Center
Mon 04:29:34 PM 44.0894 -87.1333 281° West 332 382 15,600 -1,065 Descending Minneapolis Center
Mon 04:30:36 PM 44.1047 -87.2536 280° West 324 373 14,600 -976 Descending Minneapolis Center
Mon 04:31:37 PM 44.1189 -87.3700 280° West 312 359 13,600 -976 Descending Minneapolis Center
Mon 04:32:39 PM 44.1336 -87.4864 280° West 307 353 12,600 -1,065 Descending Minneapolis Center
Mon 04:33:41 PM 44.1492 -87.6033 281° West 307 353 11,400 -1,258 Descending Minneapolis Center
Mon 04:34:43 PM 44.1653 -87.7333 280° West 298 343 10,000 -1,210 Descending Minneapolis Center
Mon 04:35:45 PM 44.1758 -87.8203 280° West 249 287 8,900 -1,065 Descending Minneapolis Center
Mon 04:36:47 PM 44.2025 -87.9050 294° West 246 283 7,800 -1,016 Descending Minneapolis Center
Mon 04:37:49 PM 44.2369 -87.9906 299° West 254 292 6,800 -976 Descending Minneapolis Center
Mon 04:38:50 PM 44.2678 -88.0789 296° West 256 295 5,800 -1,073 Descending Minneapolis Center
Mon 04:39:52 PM 44.2881 -88.1747 286° West 229 264 4,600 -919 Descending Minneapolis Center
Mon 04:40:54 PM 44.3036 -88.2492 286° West 210 242 3,900 -823 Descending Minneapolis Center
Mon 04:41:56 PM 44.3139 -88.3192 282° West 193 222 2,900 -629 Descending Minneapolis Center
Mon 04:42:58 PM 44.3236 -88.3911 281° West 190 219 2,600 -435 Descending Minneapolis Center
Mon 04:44:00 PM 44.3197 -88.4550 265° West 179 206 2,000 -532 Descending Minneapolis Center
Mon 04:45:02 PM 44.3008 -88.4936 236° Southwest 147 169 1,500 -435 Descending Minneapolis Center
Mon 04:46:04 PM 44.2686 -88.5222 212° Southwest 131 151 1,100 -387 Descending Minneapolis Center

Login

Don't have an account? Register now (free) for customized features, flight alerts, and more!